sensor_id;sensor_type;location;lat;lon;timestamp;P1;durP1;ratioP1;P2;durP2;ratioP2
56712;SDS011;42589;45.536;9.032;2022-09-13T00:01:37;12.35;;;8.18;;
56712;SDS011;42589;45.536;9.032;2022-09-13T00:04:38;11.57;;;8.77;;
56712;SDS011;42589;45.536;9.032;2022-09-13T00:07:39;8.20;;;6.65;;
56712;SDS011;42589;45.536;9.032;2022-09-13T00:10:40;8.55;;;7.03;;
56712;SDS011;42589;45.536;9.032;2022-09-13T00:13:42;10.27;;;6.97;;
56712;SDS011;42589;45.536;9.032;2022-09-13T00:16:43;9.93;;;6.53;;
56712;SDS011;42589;45.536;9.032;2022-09-13T00:19:45;13.15;;;6.63;;
56712;SDS011;42589;45.536;9.032;2022-09-13T00:22:46;9.55;;;5.97;;
56712;SDS011;42589;45.536;9.032;2022-09-13T00:25:47;10.48;;;6.75;;
56712;SDS011;42589;45.536;9.032;2022-09-13T00:28:51;9.63;;;8.23;;
56712;SDS011;42589;45.536;9.032;2022-09-13T00:31:54;8.68;;;7.65;;
56712;SDS011;42589;45.536;9.032;2022-09-13T00:34:54;12.25;;;8.70;;
56712;SDS011;42589;45.536;9.032;2022-09-13T00:37:55;10.75;;;8.48;;
56712;SDS011;42589;45.536;9.032;2022-09-13T00:40:58;13.15;;;9.00;;
56712;SDS011;42589;45.536;9.032;2022-09-13T00:44:00;9.88;;;7.75;;
56712;SDS011;42589;45.536;9.032;2022-09-13T00:47:01;9.63;;;7.50;;
56712;SDS011;42589;45.536;9.032;2022-09-13T00:53:13;11.43;;;8.00;;
56712;SDS011;42589;45.536;9.032;2022-09-13T00:56:29;11.05;;;7.72;;
56712;SDS011;42589;45.536;9.032;2022-09-13T00:59:42;14.50;;;7.32;;
56712;SDS011;42589;45.536;9.032;2022-09-13T01:02:50;10.68;;;7.45;;
56712;SDS011;42589;45.536;9.032;2022-09-13T01:05:56;14.48;;;7.95;;
56712;SDS011;42589;45.536;9.032;2022-09-13T01:09:00;10.90;;;6.60;;
56712;SDS011;42589;45.536;9.032;2022-09-13T01:12:04;10.20;;;7.60;;
56712;SDS011;42589;45.536;9.032;2022-09-13T01:15:13;9.25;;;7.05;;
56712;SDS011;42589;45.536;9.032;2022-09-13T01:18:14;8.88;;;7.15;;
56712;SDS011;42589;45.536;9.032;2022-09-13T01:31:53;10.07;;;6.90;;
56712;SDS011;42589;45.536;9.032;2022-09-13T01:35:03;7.53;;;6.70;;
56712;SDS011;42589;45.536;9.032;2022-09-13T01:51:10;10.57;;;6.57;;
56712;SDS011;42589;45.536;9.032;2022-09-13T01:54:28;9.70;;;6.72;;
56712;SDS011;42589;45.536;9.032;2022-09-13T01:57:57;7.13;;;6.30;;
56712;SDS011;42589;45.536;9.032;2022-09-13T02:01:09;9.20;;;6.97;;
56712;SDS011;42589;45.536;9.032;2022-09-13T02:04:18;11.90;;;6.63;;
56712;SDS011;42589;45.536;9.032;2022-09-13T02:07:25;9.15;;;7.35;;
56712;SDS011;42589;45.536;9.032;2022-09-13T02:10:33;10.25;;;6.88;;
56712;SDS011;42589;45.536;9.032;2022-09-13T02:13:57;9.90;;;7.22;;
56712;SDS011;42589;45.536;9.032;2022-09-13T02:17:06;11.13;;;7.22;;
56712;SDS011;42589;45.536;9.032;2022-09-13T02:20:12;9.20;;;7.55;;
56712;SDS011;42589;45.536;9.032;2022-09-13T02:23:24;9.45;;;8.10;;
56712;SDS011;42589;45.536;9.032;2022-09-13T02:26:36;8.52;;;7.13;;
56712;SDS011;42589;45.536;9.032;2022-09-13T02:29:39;13.00;;;8.07;;
56712;SDS011;42589;45.536;9.032;2022-09-13T02:32:47;12.13;;;7.10;;
56712;SDS011;42589;45.536;9.032;2022-09-13T02:35:58;10.05;;;8.20;;
56712;SDS011;42589;45.536;9.032;2022-09-13T02:38:59;10.00;;;7.85;;
56712;SDS011;42589;45.536;9.032;2022-09-13T02:42:07;8.00;;;7.30;;
56712;SDS011;42589;45.536;9.032;2022-09-13T02:45:16;10.68;;;7.15;;
56712;SDS011;42589;45.536;9.032;2022-09-13T02:48:26;9.85;;;7.05;;
56712;SDS011;42589;45.536;9.032;2022-09-13T02:58:41;9.88;;;6.35;;
56712;SDS011;42589;45.536;9.032;2022-09-13T03:04:52;8.32;;;7.32;;
56712;SDS011;42589;45.536;9.032;2022-09-13T03:07:53;9.57;;;7.15;;
56712;SDS011;42589;45.536;9.032;2022-09-13T03:17:39;8.55;;;5.47;;
56712;SDS011;42589;45.536;9.032;2022-09-13T03:24:29;8.15;;;5.28;;
56712;SDS011;42589;45.536;9.032;2022-09-13T03:27:47;9.43;;;5.40;;
56712;SDS011;42589;45.536;9.032;2022-09-13T03:31:05;8.75;;;5.80;;
56712;SDS011;42589;45.536;9.032;2022-09-13T03:34:24;10.35;;;5.75;;
56712;SDS011;42589;45.536;9.032;2022-09-13T03:41:18;11.35;;;5.93;;
56712;SDS011;42589;45.536;9.032;2022-09-13T03:44:26;8.25;;;5.38;;
56712;SDS011;42589;45.536;9.032;2022-09-13T03:47:31;7.93;;;5.65;;
56712;SDS011;42589;45.536;9.032;2022-09-13T03:50:35;7.85;;;5.22;;
56712;SDS011;42589;45.536;9.032;2022-09-13T03:53:39;6.35;;;5.45;;
56712;SDS011;42589;45.536;9.032;2022-09-13T04:00:11;9.13;;;5.60;;
56712;SDS011;42589;45.536;9.032;2022-09-13T04:03:13;10.40;;;4.95;;
56712;SDS011;42589;45.536;9.032;2022-09-13T04:06:13;10.73;;;5.28;;
56712;SDS011;42589;45.536;9.032;2022-09-13T04:09:15;9.98;;;5.63;;
56712;SDS011;42589;45.536;9.032;2022-09-13T04:12:35;8.23;;;4.80;;
56712;SDS011;42589;45.536;9.032;2022-09-13T04:15:35;8.00;;;5.55;;
56712;SDS011;42589;45.536;9.032;2022-09-13T04:18:36;7.70;;;5.35;;
56712;SDS011;42589;45.536;9.032;2022-09-13T04:21:37;7.63;;;5.70;;
56712;SDS011;42589;45.536;9.032;2022-09-13T04:24:57;8.68;;;6.53;;
56712;SDS011;42589;45.536;9.032;2022-09-13T04:27:58;9.88;;;6.00;;
56712;SDS011;42589;45.536;9.032;2022-09-13T04:30:59;9.82;;;6.20;;
56712;SDS011;42589;45.536;9.032;2022-09-13T04:34:00;9.88;;;6.38;;
56712;SDS011;42589;45.536;9.032;2022-09-13T04:37:00;8.73;;;6.80;;
56712;SDS011;42589;45.536;9.032;2022-09-13T04:40:01;7.50;;;6.70;;
56712;SDS011;42589;45.536;9.032;2022-09-13T04:43:23;7.50;;;6.65;;
56712;SDS011;42589;45.536;9.032;2022-09-13T04:46:24;9.52;;;7.00;;
56712;SDS011;42589;45.536;9.032;2022-09-13T04:49:25;9.20;;;7.45;;
56712;SDS011;42589;45.536;9.032;2022-09-13T04:52:26;12.85;;;7.65;;
56712;SDS011;42589;45.536;9.032;2022-09-13T04:55:27;10.80;;;7.57;;
56712;SDS011;42589;45.536;9.032;2022-09-13T04:58:29;12.25;;;7.40;;
56712;SDS011;42589;45.536;9.032;2022-09-13T05:01:31;8.35;;;6.50;;
56712;SDS011;42589;45.536;9.032;2022-09-13T05:04:31;9.13;;;6.43;;
56712;SDS011;42589;45.536;9.032;2022-09-13T05:07:32;7.85;;;6.45;;
56712;SDS011;42589;45.536;9.032;2022-09-13T05:10:34;8.80;;;6.32;;
56712;SDS011;42589;45.536;9.032;2022-09-13T05:13:35;11.48;;;6.43;;
56712;SDS011;42589;45.536;9.032;2022-09-13T05:16:36;12.85;;;6.55;;
56712;SDS011;42589;45.536;9.032;2022-09-13T05:19:37;9.63;;;6.43;;
56712;SDS011;42589;45.536;9.032;2022-09-13T05:22:38;11.73;;;6.28;;
56712;SDS011;42589;45.536;9.032;2022-09-13T05:25:40;12.88;;;6.80;;
56712;SDS011;42589;45.536;9.032;2022-09-13T05:28:41;9.70;;;6.47;;
56712;SDS011;42589;45.536;9.032;2022-09-13T05:31:43;9.93;;;6.55;;
56712;SDS011;42589;45.536;9.032;2022-09-13T05:34:44;11.38;;;6.60;;
56712;SDS011;42589;45.536;9.032;2022-09-13T05:37:47;7.57;;;5.85;;
56712;SDS011;42589;45.536;9.032;2022-09-13T05:40:52;16.50;;;6.90;;
56712;SDS011;42589;45.536;9.032;2022-09-13T05:43:58;15.98;;;7.95;;
56712;SDS011;42589;45.536;9.032;2022-09-13T05:47:00;9.70;;;7.15;;
56712;SDS011;42589;45.536;9.032;2022-09-13T05:53:07;12.25;;;7.20;;
56712;SDS011;42589;45.536;9.032;2022-09-13T05:56:08;13.80;;;7.13;;
56712;SDS011;42589;45.536;9.032;2022-09-13T05:59:11;19.75;;;7.78;;
56712;SDS011;42589;45.536;9.032;2022-09-13T06:02:13;16.23;;;7.80;;
56712;SDS011;42589;45.536;9.032;2022-09-13T06:05:14;12.57;;;7.72;;
56712;SDS011;42589;45.536;9.032;2022-09-13T06:08:15;17.35;;;7.40;;
56712;SDS011;42589;45.536;9.032;2022-09-13T06:11:20;16.40;;;9.10;;
56712;SDS011;42589;45.536;9.032;2022-09-13T06:14:21;24.42;;;10.65;;
56712;SDS011;42589;45.536;9.032;2022-09-13T06:17:22;19.65;;;9.23;;
56712;SDS011;42589;45.536;9.032;2022-09-13T06:20:23;16.63;;;9.45;;
56712;SDS011;42589;45.536;9.032;2022-09-13T06:23:25;18.23;;;10.65;;
56712;SDS011;42589;45.536;9.032;2022-09-13T06:26:27;20.95;;;11.20;;
56712;SDS011;42589;45.536;9.032;2022-09-13T06:29:28;21.92;;;9.88;;
56712;SDS011;42589;45.536;9.032;2022-09-13T06:32:30;19.08;;;9.30;;
56712;SDS011;42589;45.536;9.032;2022-09-13T06:35:31;18.63;;;9.60;;
56712;SDS011;42589;45.536;9.032;2022-09-13T06:38:31;16.15;;;8.73;;
56712;SDS011;42589;45.536;9.032;2022-09-13T06:41:32;13.68;;;8.38;;
56712;SDS011;42589;45.536;9.032;2022-09-13T06:44:33;14.57;;;8.57;;
56712;SDS011;42589;45.536;9.032;2022-09-13T06:47:34;11.40;;;8.05;;
56712;SDS011;42589;45.536;9.032;2022-09-13T06:50:37;10.87;;;7.80;;
56712;SDS011;42589;45.536;9.032;2022-09-13T06:53:38;10.88;;;7.88;;
56712;SDS011;42589;45.536;9.032;2022-09-13T06:56:40;11.48;;;7.85;;
56712;SDS011;42589;45.536;9.032;2022-09-13T06:59:40;10.60;;;7.95;;
56712;SDS011;42589;45.536;9.032;2022-09-13T07:02:43;15.35;;;9.40;;
56712;SDS011;42589;45.536;9.032;2022-09-13T07:05:44;13.73;;;9.68;;
56712;SDS011;42589;45.536;9.032;2022-09-13T07:08:45;15.48;;;9.55;;
56712;SDS011;42589;45.536;9.032;2022-09-13T07:11:48;13.93;;;9.40;;
56712;SDS011;42589;45.536;9.032;2022-09-13T07:14:49;12.02;;;8.80;;
56712;SDS011;42589;45.536;9.032;2022-09-13T07:17:51;14.18;;;8.90;;
56712;SDS011;42589;45.536;9.032;2022-09-13T07:20:57;16.88;;;10.07;;
56712;SDS011;42589;45.536;9.032;2022-09-13T07:23:59;16.67;;;9.57;;
56712;SDS011;42589;45.536;9.032;2022-09-13T07:27:01;19.20;;;8.82;;
56712;SDS011;42589;45.536;9.032;2022-09-13T07:30:02;13.70;;;8.18;;
56712;SDS011;42589;45.536;9.032;2022-09-13T07:33:03;13.35;;;8.65;;
56712;SDS011;42589;45.536;9.032;2022-09-13T07:36:04;13.02;;;7.78;;
56712;SDS011;42589;45.536;9.032;2022-09-13T07:39:05;17.42;;;8.07;;
56712;SDS011;42589;45.536;9.032;2022-09-13T07:42:07;11.25;;;7.45;;
56712;SDS011;42589;45.536;9.032;2022-09-13T07:45:08;10.48;;;7.32;;
56712;SDS011;42589;45.536;9.032;2022-09-13T07:48:09;11.77;;;7.55;;
56712;SDS011;42589;45.536;9.032;2022-09-13T07:54:13;12.77;;;8.10;;
56712;SDS011;42589;45.536;9.032;2022-09-13T07:57:15;9.48;;;8.38;;
56712;SDS011;42589;45.536;9.032;2022-09-13T08:00:16;12.07;;;8.07;;
56712;SDS011;42589;45.536;9.032;2022-09-13T08:03:17;13.02;;;8.95;;
56712;SDS011;42589;45.536;9.032;2022-09-13T08:06:18;11.90;;;9.13;;
56712;SDS011;42589;45.536;9.032;2022-09-13T08:09:20;15.50;;;9.85;;
56712;SDS011;42589;45.536;9.032;2022-09-13T08:12:20;9.80;;;7.57;;
56712;SDS011;42589;45.536;9.032;2022-09-13T08:15:20;14.95;;;8.60;;
56712;SDS011;42589;45.536;9.032;2022-09-13T08:18:21;12.45;;;8.98;;
56712;SDS011;42589;45.536;9.032;2022-09-13T08:21:23;13.57;;;8.55;;
56712;SDS011;42589;45.536;9.032;2022-09-13T08:24:25;15.43;;;8.90;;
56712;SDS011;42589;45.536;9.032;2022-09-13T08:27:27;14.45;;;8.82;;
56712;SDS011;42589;45.536;9.032;2022-09-13T08:30:27;24.05;;;10.20;;
56712;SDS011;42589;45.536;9.032;2022-09-13T08:33:33;15.98;;;10.40;;
56712;SDS011;42589;45.536;9.032;2022-09-13T08:36:34;14.45;;;9.77;;
56712;SDS011;42589;45.536;9.032;2022-09-13T08:39:35;14.90;;;10.00;;
56712;SDS011;42589;45.536;9.032;2022-09-13T08:42:43;15.30;;;9.30;;
56712;SDS011;42589;45.536;9.032;2022-09-13T08:46:19;14.10;;;10.80;;
56712;SDS011;42589;45.536;9.032;2022-09-13T08:49:37;13.00;;;8.57;;
56712;SDS011;42589;45.536;9.032;2022-09-13T08:53:03;18.38;;;12.23;;
56712;SDS011;42589;45.536;9.032;2022-09-13T08:56:10;23.40;;;12.60;;
56712;SDS011;42589;45.536;9.032;2022-09-13T08:59:23;20.00;;;12.15;;
56712;SDS011;42589;45.536;9.032;2022-09-13T09:06:11;21.75;;;13.68;;
56712;SDS011;42589;45.536;9.032;2022-09-13T09:09:19;18.63;;;11.82;;
56712;SDS011;42589;45.536;9.032;2022-09-13T09:15:51;16.27;;;11.82;;
56712;SDS011;42589;45.536;9.032;2022-09-13T09:18:57;15.75;;;11.45;;
56712;SDS011;42589;45.536;9.032;2022-09-13T09:22:03;19.42;;;10.85;;
56712;SDS011;42589;45.536;9.032;2022-09-13T09:25:11;17.83;;;10.20;;
56712;SDS011;42589;45.536;9.032;2022-09-13T09:28:13;14.63;;;10.25;;
56712;SDS011;42589;45.536;9.032;2022-09-13T09:31:36;15.63;;;11.10;;
56712;SDS011;42589;45.536;9.032;2022-09-13T09:44:28;15.52;;;10.38;;
56712;SDS011;42589;45.536;9.032;2022-09-13T09:47:35;18.38;;;11.52;;
56712;SDS011;42589;45.536;9.032;2022-09-13T09:50:51;13.52;;;10.00;;
56712;SDS011;42589;45.536;9.032;2022-09-13T09:53:59;13.00;;;9.23;;
56712;SDS011;42589;45.536;9.032;2022-09-13T09:57:04;17.42;;;9.57;;
56712;SDS011;42589;45.536;9.032;2022-09-13T10:00:13;15.15;;;9.65;;
56712;SDS011;42589;45.536;9.032;2022-09-13T10:03:19;16.50;;;7.82;;
56712;SDS011;42589;45.536;9.032;2022-09-13T10:06:24;12.05;;;8.88;;
56712;SDS011;42589;45.536;9.032;2022-09-13T10:12:28;15.13;;;8.65;;
56712;SDS011;42589;45.536;9.032;2022-09-13T10:15:33;15.93;;;10.63;;
56712;SDS011;42589;45.536;9.032;2022-09-13T10:18:35;15.07;;;9.90;;
56712;SDS011;42589;45.536;9.032;2022-09-13T10:21:36;12.95;;;9.02;;
56712;SDS011;42589;45.536;9.032;2022-09-13T10:24:37;17.73;;;10.57;;
56712;SDS011;42589;45.536;9.032;2022-09-13T10:27:39;14.93;;;11.13;;
56712;SDS011;42589;45.536;9.032;2022-09-13T10:34:19;12.85;;;9.70;;
56712;SDS011;42589;45.536;9.032;2022-09-13T10:37:33;17.30;;;10.80;;
56712;SDS011;42589;45.536;9.032;2022-09-13T10:40:34;16.63;;;9.88;;
56712;SDS011;42589;45.536;9.032;2022-09-13T10:43:39;11.38;;;8.73;;
56712;SDS011;42589;45.536;9.032;2022-09-13T10:46:41;10.95;;;7.72;;
56712;SDS011;42589;45.536;9.032;2022-09-13T10:49:43;16.17;;;7.22;;
56712;SDS011;42589;45.536;9.032;2022-09-13T10:52:54;10.10;;;6.57;;
56712;SDS011;42589;45.536;9.032;2022-09-13T10:55:57;8.82;;;5.93;;
56712;SDS011;42589;45.536;9.032;2022-09-13T11:10:33;11.43;;;7.00;;
56712;SDS011;42589;45.536;9.032;2022-09-13T11:13:05;9.27;;;5.40;;
56712;SDS011;42589;45.536;9.032;2022-09-13T11:23:21;11.43;;;6.88;;
56712;SDS011;42589;45.536;9.032;2022-09-13T11:26:36;14.68;;;7.85;;
56712;SDS011;42589;45.536;9.032;2022-09-13T11:33:02;10.07;;;6.95;;
56712;SDS011;42589;45.536;9.032;2022-09-13T11:39:30;13.27;;;5.18;;
56712;SDS011;42589;45.536;9.032;2022-09-13T11:55:51;10.32;;;3.67;;
56712;SDS011;42589;45.536;9.032;2022-09-13T11:59:06;9.18;;;3.90;;
56712;SDS011;42589;45.536;9.032;2022-09-13T12:05:34;11.40;;;3.22;;
56712;SDS011;42589;45.536;9.032;2022-09-13T12:08:44;5.47;;;3.20;;
56712;SDS011;42589;45.536;9.032;2022-09-13T12:12:10;7.70;;;3.08;;
56712;SDS011;42589;45.536;9.032;2022-09-13T12:15:54;8.05;;;3.17;;
56712;SDS011;42589;45.536;9.032;2022-09-13T12:21:44;9.98;;;3.00;;
56712;SDS011;42589;45.536;9.032;2022-09-13T12:24:51;6.32;;;3.17;;
56712;SDS011;42589;45.536;9.032;2022-09-13T12:27:59;6.50;;;2.75;;
56712;SDS011;42589;45.536;9.032;2022-09-13T12:31:08;7.47;;;2.97;;
56712;SDS011;42589;45.536;9.032;2022-09-13T12:34:22;2.90;;;2.38;;
56712;SDS011;42589;45.536;9.032;2022-09-13T12:37:34;4.18;;;2.40;;
56712;SDS011;42589;45.536;9.032;2022-09-13T12:40:53;5.28;;;2.40;;
56712;SDS011;42589;45.536;9.032;2022-09-13T12:44:22;5.50;;;2.30;;
56712;SDS011;42589;45.536;9.032;2022-09-13T12:51:39;7.10;;;2.70;;
56712;SDS011;42589;45.536;9.032;2022-09-13T12:55:18;4.53;;;2.50;;
56712;SDS011;42589;45.536;9.032;2022-09-13T13:05:45;7.28;;;3.20;;
56712;SDS011;42589;45.536;9.032;2022-09-13T13:12:00;8.32;;;2.78;;
56712;SDS011;42589;45.536;9.032;2022-09-13T13:15:05;7.35;;;3.20;;
56712;SDS011;42589;45.536;9.032;2022-09-13T13:21:43;6.63;;;3.38;;
56712;SDS011;42589;45.536;9.032;2022-09-13T13:24:44;7.43;;;2.90;;
56712;SDS011;42589;45.536;9.032;2022-09-13T13:27:46;4.90;;;3.30;;
56712;SDS011;42589;45.536;9.032;2022-09-13T13:30:52;4.80;;;3.47;;
56712;SDS011;42589;45.536;9.032;2022-09-13T13:40:20;5.38;;;2.60;;
56712;SDS011;42589;45.536;9.032;2022-09-13T13:46:30;4.15;;;2.30;;
56712;SDS011;42589;45.536;9.032;2022-09-13T13:52:38;4.88;;;2.40;;
56712;SDS011;42589;45.536;9.032;2022-09-13T13:56:03;5.45;;;2.30;;
56712;SDS011;42589;45.536;9.032;2022-09-13T14:02:16;8.63;;;2.33;;
56712;SDS011;42589;45.536;9.032;2022-09-13T14:11:57;4.80;;;2.30;;
56712;SDS011;42589;45.536;9.032;2022-09-13T14:15:29;4.00;;;2.40;;
56712;SDS011;42589;45.536;9.032;2022-09-13T14:18:44;4.30;;;1.95;;
56712;SDS011;42589;45.536;9.032;2022-09-13T14:25:21;6.13;;;2.35;;
56712;SDS011;42589;45.536;9.032;2022-09-13T14:28:23;3.00;;;1.80;;
56712;SDS011;42589;45.536;9.032;2022-09-13T14:31:24;3.40;;;2.10;;
56712;SDS011;42589;45.536;9.032;2022-09-13T14:34:27;3.72;;;2.30;;
56712;SDS011;42589;45.536;9.032;2022-09-13T14:37:34;7.97;;;2.47;;
56712;SDS011;42589;45.536;9.032;2022-09-13T14:40:37;6.10;;;2.25;;
56712;SDS011;42589;45.536;9.032;2022-09-13T14:43:37;5.97;;;2.40;;
56712;SDS011;42589;45.536;9.032;2022-09-13T14:46:38;8.77;;;2.22;;
56712;SDS011;42589;45.536;9.032;2022-09-13T14:49:44;4.88;;;2.40;;
56712;SDS011;42589;45.536;9.032;2022-09-13T14:56:05;4.97;;;1.77;;
56712;SDS011;42589;45.536;9.032;2022-09-13T14:59:12;4.40;;;1.83;;
56712;SDS011;42589;45.536;9.032;2022-09-13T15:05:53;6.85;;;2.53;;
56712;SDS011;42589;45.536;9.032;2022-09-13T15:12:19;5.13;;;2.63;;
56712;SDS011;42589;45.536;9.032;2022-09-13T15:21:34;7.07;;;2.00;;
56712;SDS011;42589;45.536;9.032;2022-09-13T15:27:43;8.00;;;2.53;;
56712;SDS011;42589;45.536;9.032;2022-09-13T15:30:46;6.10;;;2.30;;
56712;SDS011;42589;45.536;9.032;2022-09-13T15:33:47;5.60;;;2.42;;
56712;SDS011;42589;45.536;9.032;2022-09-13T15:36:48;4.22;;;2.42;;
56712;SDS011;42589;45.536;9.032;2022-09-13T15:40:10;4.88;;;2.22;;
56712;SDS011;42589;45.536;9.032;2022-09-13T15:43:19;7.78;;;2.53;;
56712;SDS011;42589;45.536;9.032;2022-09-13T15:46:20;7.07;;;2.50;;
56712;SDS011;42589;45.536;9.032;2022-09-13T15:49:22;6.63;;;2.10;;
56712;SDS011;42589;45.536;9.032;2022-09-13T15:52:25;6.07;;;2.47;;
56712;SDS011;42589;45.536;9.032;2022-09-13T15:55:26;4.57;;;2.40;;
56712;SDS011;42589;45.536;9.032;2022-09-13T15:58:27;8.15;;;3.05;;
56712;SDS011;42589;45.536;9.032;2022-09-13T16:01:29;3.47;;;1.90;;
56712;SDS011;42589;45.536;9.032;2022-09-13T16:04:30;4.88;;;1.95;;
56712;SDS011;42589;45.536;9.032;2022-09-13T16:07:30;3.20;;;2.08;;
56712;SDS011;42589;45.536;9.032;2022-09-13T16:10:32;5.80;;;2.17;;
56712;SDS011;42589;45.536;9.032;2022-09-13T16:13:33;4.68;;;2.13;;
56712;SDS011;42589;45.536;9.032;2022-09-13T16:16:35;4.70;;;2.35;;
56712;SDS011;42589;45.536;9.032;2022-09-13T16:19:36;5.65;;;2.08;;
56712;SDS011;42589;45.536;9.032;2022-09-13T16:22:37;5.28;;;2.10;;
56712;SDS011;42589;45.536;9.032;2022-09-13T16:25:38;4.65;;;2.13;;
56712;SDS011;42589;45.536;9.032;2022-09-13T16:28:39;3.72;;;2.10;;
56712;SDS011;42589;45.536;9.032;2022-09-13T16:31:40;4.90;;;1.90;;
56712;SDS011;42589;45.536;9.032;2022-09-13T16:34:41;6.07;;;1.88;;
56712;SDS011;42589;45.536;9.032;2022-09-13T16:37:42;14.25;;;2.20;;
56712;SDS011;42589;45.536;9.032;2022-09-13T16:40:43;6.72;;;2.55;;
56712;SDS011;42589;45.536;9.032;2022-09-13T16:43:47;12.20;;;2.00;;
56712;SDS011;42589;45.536;9.032;2022-09-13T16:46:48;4.05;;;1.85;;
56712;SDS011;42589;45.536;9.032;2022-09-13T16:49:49;8.70;;;2.30;;
56712;SDS011;42589;45.536;9.032;2022-09-13T16:52:49;4.82;;;2.22;;
56712;SDS011;42589;45.536;9.032;2022-09-13T16:55:51;5.95;;;2.00;;
56712;SDS011;42589;45.536;9.032;2022-09-13T16:58:52;3.63;;;2.80;;
56712;SDS011;42589;45.536;9.032;2022-09-13T17:01:53;5.03;;;2.10;;
56712;SDS011;42589;45.536;9.032;2022-09-13T17:04:54;3.63;;;1.80;;
56712;SDS011;42589;45.536;9.032;2022-09-13T17:07:55;4.60;;;1.95;;
56712;SDS011;42589;45.536;9.032;2022-09-13T17:11:00;5.63;;;2.30;;
56712;SDS011;42589;45.536;9.032;2022-09-13T17:14:06;5.68;;;2.20;;
56712;SDS011;42589;45.536;9.032;2022-09-13T17:17:08;5.07;;;2.05;;
56712;SDS011;42589;45.536;9.032;2022-09-13T17:20:09;4.93;;;2.58;;
56712;SDS011;42589;45.536;9.032;2022-09-13T17:23:11;6.47;;;2.50;;
56712;SDS011;42589;45.536;9.032;2022-09-13T17:26:12;4.53;;;2.20;;
56712;SDS011;42589;45.536;9.032;2022-09-13T17:29:13;5.80;;;2.25;;
56712;SDS011;42589;45.536;9.032;2022-09-13T17:32:14;7.22;;;2.15;;
56712;SDS011;42589;45.536;9.032;2022-09-13T17:35:15;12.93;;;2.28;;
56712;SDS011;42589;45.536;9.032;2022-09-13T17:38:16;7.47;;;2.40;;
56712;SDS011;42589;45.536;9.032;2022-09-13T17:41:18;6.95;;;2.38;;
56712;SDS011;42589;45.536;9.032;2022-09-13T17:44:19;5.90;;;2.30;;
56712;SDS011;42589;45.536;9.032;2022-09-13T17:47:19;6.70;;;2.90;;
56712;SDS011;42589;45.536;9.032;2022-09-13T17:50:20;18.73;;;3.05;;
56712;SDS011;42589;45.536;9.032;2022-09-13T17:53:22;8.45;;;2.38;;
56712;SDS011;42589;45.536;9.032;2022-09-13T17:56:25;5.03;;;2.58;;
56712;SDS011;42589;45.536;9.032;2022-09-13T17:59:31;13.82;;;3.03;;
56712;SDS011;42589;45.536;9.032;2022-09-13T18:02:31;10.57;;;2.50;;
56712;SDS011;42589;45.536;9.032;2022-09-13T18:05:32;10.07;;;2.70;;
56712;SDS011;42589;45.536;9.032;2022-09-13T18:08:34;6.82;;;2.65;;
56712;SDS011;42589;45.536;9.032;2022-09-13T18:11:38;8.13;;;2.78;;
56712;SDS011;42589;45.536;9.032;2022-09-13T18:14:39;7.72;;;2.70;;
56712;SDS011;42589;45.536;9.032;2022-09-13T18:17:40;6.93;;;2.17;;
56712;SDS011;42589;45.536;9.032;2022-09-13T18:20:43;5.82;;;2.42;;
56712;SDS011;42589;45.536;9.032;2022-09-13T18:23:46;4.32;;;2.20;;
56712;SDS011;42589;45.536;9.032;2022-09-13T18:26:50;5.07;;;2.45;;
56712;SDS011;42589;45.536;9.032;2022-09-13T18:29:51;6.75;;;2.22;;
56712;SDS011;42589;45.536;9.032;2022-09-13T18:32:52;7.50;;;2.72;;
56712;SDS011;42589;45.536;9.032;2022-09-13T18:35:57;5.47;;;2.70;;
56712;SDS011;42589;45.536;9.032;2022-09-13T18:39:13;5.35;;;2.33;;
56712;SDS011;42589;45.536;9.032;2022-09-13T18:42:18;6.25;;;2.58;;
56712;SDS011;42589;45.536;9.032;2022-09-13T18:45:19;5.13;;;2.53;;
56712;SDS011;42589;45.536;9.032;2022-09-13T18:48:21;4.85;;;2.05;;
56712;SDS011;42589;45.536;9.032;2022-09-13T18:51:22;6.90;;;2.30;;
56712;SDS011;42589;45.536;9.032;2022-09-13T18:54:27;5.30;;;1.85;;
56712;SDS011;42589;45.536;9.032;2022-09-13T18:57:37;3.80;;;1.95;;
56712;SDS011;42589;45.536;9.032;2022-09-13T19:00:38;6.70;;;2.00;;
56712;SDS011;42589;45.536;9.032;2022-09-13T19:03:45;8.85;;;2.13;;
56712;SDS011;42589;45.536;9.032;2022-09-13T19:06:51;5.88;;;2.15;;
56712;SDS011;42589;45.536;9.032;2022-09-13T19:09:53;4.78;;;1.95;;
56712;SDS011;42589;45.536;9.032;2022-09-13T19:12:54;4.05;;;1.73;;
56712;SDS011;42589;45.536;9.032;2022-09-13T19:15:59;5.13;;;1.80;;
56712;SDS011;42589;45.536;9.032;2022-09-13T19:19:06;4.63;;;1.77;;
56712;SDS011;42589;45.536;9.032;2022-09-13T19:22:08;6.60;;;1.95;;
56712;SDS011;42589;45.536;9.032;2022-09-13T19:25:09;3.88;;;1.60;;
56712;SDS011;42589;45.536;9.032;2022-09-13T19:28:10;7.18;;;1.77;;
56712;SDS011;42589;45.536;9.032;2022-09-13T19:31:11;3.25;;;1.52;;
56712;SDS011;42589;45.536;9.032;2022-09-13T19:34:13;4.93;;;1.20;;
56712;SDS011;42589;45.536;9.032;2022-09-13T19:37:14;7.00;;;1.88;;
56712;SDS011;42589;45.536;9.032;2022-09-13T19:40:14;5.55;;;1.65;;
56712;SDS011;42589;45.536;9.032;2022-09-13T19:43:15;3.40;;;1.40;;
56712;SDS011;42589;45.536;9.032;2022-09-13T19:46:17;4.63;;;2.00;;
56712;SDS011;42589;45.536;9.032;2022-09-13T19:49:21;5.35;;;2.65;;
56712;SDS011;42589;45.536;9.032;2022-09-13T19:52:21;6.63;;;2.30;;
56712;SDS011;42589;45.536;9.032;2022-09-13T19:55:22;5.60;;;2.50;;
56712;SDS011;42589;45.536;9.032;2022-09-13T19:58:23;6.30;;;3.03;;
56712;SDS011;42589;45.536;9.032;2022-09-13T20:01:29;6.90;;;2.90;;
56712;SDS011;42589;45.536;9.032;2022-09-13T20:04:32;6.68;;;2.63;;
56712;SDS011;42589;45.536;9.032;2022-09-13T20:07:33;5.85;;;2.28;;
56712;SDS011;42589;45.536;9.032;2022-09-13T20:10:35;5.57;;;2.20;;
56712;SDS011;42589;45.536;9.032;2022-09-13T20:13:37;6.35;;;2.53;;
56712;SDS011;42589;45.536;9.032;2022-09-13T20:16:38;5.43;;;2.30;;
56712;SDS011;42589;45.536;9.032;2022-09-13T20:19:40;7.57;;;2.20;;
56712;SDS011;42589;45.536;9.032;2022-09-13T20:22:41;4.68;;;2.15;;
56712;SDS011;42589;45.536;9.032;2022-09-13T20:25:42;6.68;;;2.20;;
56712;SDS011;42589;45.536;9.032;2022-09-13T20:28:44;5.47;;;1.80;;
56712;SDS011;42589;45.536;9.032;2022-09-13T20:31:46;5.57;;;2.30;;
56712;SDS011;42589;45.536;9.032;2022-09-13T20:34:47;6.55;;;2.03;;
56712;SDS011;42589;45.536;9.032;2022-09-13T20:37:49;5.43;;;2.30;;
56712;SDS011;42589;45.536;9.032;2022-09-13T20:40:49;7.75;;;2.63;;
56712;SDS011;42589;45.536;9.032;2022-09-13T20:43:50;6.68;;;2.35;;
56712;SDS011;42589;45.536;9.032;2022-09-13T20:46:52;5.07;;;2.50;;
56712;SDS011;42589;45.536;9.032;2022-09-13T20:49:52;6.35;;;3.35;;
56712;SDS011;42589;45.536;9.032;2022-09-13T20:52:53;6.60;;;2.80;;
56712;SDS011;42589;45.536;9.032;2022-09-13T20:56:00;7.80;;;2.97;;
56712;SDS011;42589;45.536;9.032;2022-09-13T20:59:03;7.45;;;2.60;;
56712;SDS011;42589;45.536;9.032;2022-09-13T21:02:04;5.80;;;2.92;;
56712;SDS011;42589;45.536;9.032;2022-09-13T21:05:05;6.82;;;2.75;;
56712;SDS011;42589;45.536;9.032;2022-09-13T21:08:07;5.25;;;2.85;;
56712;SDS011;42589;45.536;9.032;2022-09-13T21:11:32;6.03;;;2.97;;
56712;SDS011;42589;45.536;9.032;2022-09-13T21:14:34;3.97;;;2.50;;
56712;SDS011;42589;45.536;9.032;2022-09-13T21:17:35;7.03;;;2.50;;
56712;SDS011;42589;45.536;9.032;2022-09-13T21:20:36;6.53;;;2.30;;
56712;SDS011;42589;45.536;9.032;2022-09-13T21:23:37;5.25;;;2.30;;
56712;SDS011;42589;45.536;9.032;2022-09-13T21:26:38;3.75;;;2.00;;
56712;SDS011;42589;45.536;9.032;2022-09-13T21:32:43;6.80;;;3.47;;
56712;SDS011;42589;45.536;9.032;2022-09-13T21:35:43;4.78;;;2.13;;
56712;SDS011;42589;45.536;9.032;2022-09-13T21:38:45;5.25;;;1.80;;